Time;durP1;ratioP1;P1;durP2;ratioP2;P2;SDS_P1;SDS_P2;PMS_P1;PMS_P2;Temp;Humidity;BMP_temperature;BMP_pressure;BME280_temperature;BME280_humidity;BME280_pressure;Samples;Min_cycle;Max_cycle;Signal;HPM_P1;HPM_P2
2022/03/29 00:02:16;;;;;;;20.48;9.60;;;;;;;;;;5048293;28;20531;-62
2022/03/29 00:05:04;;;;;;;14.80;8.82;;;;;;;;;;5050854;28;20283;-62
2022/03/29 00:07:49;;;;;;;16.13;7.57;;;;;;;;;;5045099;28;20044;-61
2022/03/29 00:10:35;;;;;;;16.05;9.38;;;;;;;;;;5030437;28;20044;-61
2022/03/29 00:13:20;;;;;;;15.38;8.65;;;;;;;;;;5042095;28;20028;-64
2022/03/29 00:16:05;;;;;;;17.95;8.15;;;;;;;;;;5046408;28;20028;-62
2022/03/29 00:18:51;;;;;;;15.57;9.45;;;;;;;;;;5030151;28;20041;-62
2022/03/29 00:21:36;;;;;;;16.55;8.52;;;;;;;;;;5048612;28;20092;-62
2022/03/29 00:24:21;;;;;;;14.27;8.35;;;;;;;;;;5039101;28;20043;-63
2022/03/29 00:27:06;;;;;;;13.10;8.15;;;;;;;;;;5049641;28;20013;-65
2022/03/29 00:29:51;;;;;;;15.10;8.48;;;;;;;;;;5051678;28;20035;-64
2022/03/29 00:32:39;;;;;;;16.33;9.38;;;;;;;;;;5039555;28;20029;-64
2022/03/29 00:35:24;;;;;;;15.52;7.68;;;;;;;;;;5026914;28;20363;-62
2022/03/29 00:38:09;;;;;;;16.08;9.07;;;;;;;;;;5039842;28;20032;-62
2022/03/29 00:40:55;;;;;;;13.20;8.98;;;;;;;;;;5047098;28;20379;-61
2022/03/29 00:43:40;;;;;;;15.32;9.10;;;;;;;;;;5030861;28;20115;-64
2022/03/29 00:46:26;;;;;;;14.48;9.20;;;;;;;;;;5042406;28;20017;-61
2022/03/29 00:49:11;;;;;;;15.75;8.40;;;;;;;;;;5039368;28;20552;-67
2022/03/29 00:51:58;;;;;;;15.15;8.48;;;;;;;;;;5049817;28;20024;-68
2022/03/29 00:54:44;;;;;;;17.00;8.68;;;;;;;;;;5038920;28;20033;-70
2022/03/29 00:57:29;;;;;;;14.55;9.35;;;;;;;;;;5037717;28;20025;-69
2022/03/29 01:00:15;;;;;;;16.77;8.35;;;;;;;;;;5038183;28;20071;-67
2022/03/29 01:03:04;;;;;;;17.90;9.15;;;;;;;;;;5044499;28;20028;-69
2022/03/29 01:05:49;;;;;;;13.10;8.80;;;;;;;;;;5048567;28;20431;-61
2022/03/29 01:08:35;;;;;;;15.65;9.18;;;;;;;;;;5040993;28;20151;-62
2022/03/29 01:11:21;;;;;;;16.83;9.45;;;;;;;;;;5051688;28;20128;-64
2022/03/29 01:14:06;;;;;;;15.45;9.15;;;;;;;;;;5041695;28;20031;-63
2022/03/29 01:19:57;;;;;;;16.30;8.82;;;;;;;;;;5042934;28;20116;-62
2022/03/29 01:22:44;;;;;;;18.98;8.88;;;;;;;;;;5030255;28;20021;-63
2022/03/29 01:25:37;;;;;;;15.90;9.13;;;;;;;;;;5044636;28;20541;-60
2022/03/29 01:28:23;;;;;;;17.52;9.50;;;;;;;;;;5038853;28;20401;-63
2022/03/29 01:31:08;;;;;;;14.10;9.18;;;;;;;;;;5044001;28;20025;-62
2022/03/29 01:33:56;;;;;;;14.10;8.88;;;;;;;;;;5043375;28;20040;-61
2022/03/29 01:36:41;;;;;;;17.83;8.35;;;;;;;;;;5042868;28;20032;-63
2022/03/29 01:39:26;;;;;;;15.55;8.77;;;;;;;;;;5032754;28;20041;-60
2022/03/29 01:42:11;;;;;;;17.05;10.52;;;;;;;;;;5050870;28;20025;-66
2022/03/29 01:44:57;;;;;;;14.80;9.98;;;;;;;;;;5047317;28;20041;-61
2022/03/29 01:47:42;;;;;;;16.00;9.75;;;;;;;;;;5027023;28;20029;-60
2022/03/29 01:50:27;;;;;;;13.73;8.45;;;;;;;;;;5035791;28;20094;-61
2022/03/29 01:53:23;;;;;;;19.75;9.55;;;;;;;;;;5037747;28;20033;-60
2022/03/29 01:56:08;;;;;;;15.13;9.13;;;;;;;;;;5023200;28;20029;-62
2022/03/29 01:58:53;;;;;;;14.38;8.77;;;;;;;;;;5048669;28;20407;-61
2022/03/29 02:01:40;;;;;;;17.88;9.27;;;;;;;;;;5040464;28;20035;-62
2022/03/29 02:04:25;;;;;;;15.45;9.27;;;;;;;;;;5036553;28;20037;-68
2022/03/29 02:07:11;;;;;;;17.08;8.05;;;;;;;;;;5038562;28;20037;-68
2022/03/29 02:09:56;;;;;;;14.35;9.13;;;;;;;;;;5046200;28;20383;-70
2022/03/29 02:12:41;;;;;;;18.08;9.98;;;;;;;;;;5035465;28;20484;-68
2022/03/29 02:15:27;;;;;;;17.10;9.63;;;;;;;;;;5051731;28;20036;-67
2022/03/29 02:18:12;;;;;;;17.27;8.93;;;;;;;;;;5037660;28;20032;-68
2022/03/29 02:20:57;;;;;;;18.73;8.65;;;;;;;;;;5047751;28;20137;-60
2022/03/29 02:23:43;;;;;;;16.50;9.70;;;;;;;;;;5035430;28;20060;-61
2022/03/29 02:26:28;;;;;;;14.48;9.32;;;;;;;;;;5047018;28;20179;-60
2022/03/29 02:29:13;;;;;;;21.13;8.25;;;;;;;;;;5036518;28;20056;-60
2022/03/29 02:31:59;;;;;;;16.08;9.52;;;;;;;;;;5038484;28;20032;-61
2022/03/29 02:34:45;;;;;;;17.38;9.35;;;;;;;;;;5051820;28;20090;-61
2022/03/29 02:37:30;;;;;;;15.05;8.65;;;;;;;;;;5043654;28;20384;-60
2022/03/29 02:40:15;;;;;;;18.02;9.05;;;;;;;;;;5052999;28;20033;-63
2022/03/29 02:43:00;;;;;;;13.68;8.60;;;;;;;;;;5042036;28;20487;-63
2022/03/29 02:45:46;;;;;;;15.60;9.23;;;;;;;;;;5046042;28;20025;-62
2022/03/29 02:48:31;;;;;;;13.52;7.35;;;;;;;;;;5046064;28;20471;-62
2022/03/29 02:51:17;;;;;;;15.55;9.02;;;;;;;;;;5056830;28;20375;-61
2022/03/29 02:54:02;;;;;;;14.02;9.00;;;;;;;;;;5041768;28;20024;-62
2022/03/29 02:56:48;;;;;;;15.75;8.57;;;;;;;;;;5047809;28;20099;-60
2022/03/29 02:59:33;;;;;;;16.92;9.68;;;;;;;;;;5050371;28;20064;-64
2022/03/29 03:02:18;;;;;;;13.65;8.68;;;;;;;;;;5048566;28;20149;-60
2022/03/29 03:05:03;;;;;;;14.50;9.32;;;;;;;;;;5043053;28;20035;-60
2022/03/29 03:07:49;;;;;;;13.70;8.73;;;;;;;;;;5044573;28;20095;-61
2022/03/29 03:10:34;;;;;;;12.48;8.07;;;;;;;;;;5028495;28;20044;-60
2022/03/29 03:13:19;;;;;;;13.40;8.13;;;;;;;;;;5044002;28;20021;-62
2022/03/29 03:16:05;;;;;;;15.25;9.18;;;;;;;;;;5049426;28;20039;-58
2022/03/29 03:18:50;;;;;;;16.73;9.00;;;;;;;;;;5050459;28;20496;-67
2022/03/29 03:21:35;;;;;;;17.77;9.50;;;;;;;;;;5047654;28;20025;-69
2022/03/29 03:24:20;;;;;;;18.65;9.52;;;;;;;;;;5036361;28;20024;-68
2022/03/29 03:27:06;;;;;;;14.98;9.48;;;;;;;;;;5038942;28;20466;-69
2022/03/29 03:29:52;;;;;;;13.70;8.35;;;;;;;;;;5045641;28;20483;-68
2022/03/29 03:32:37;;;;;;;13.27;8.93;;;;;;;;;;5043473;28;20064;-60
2022/03/29 03:35:22;;;;;;;16.15;8.15;;;;;;;;;;5039119;28;20043;-61
2022/03/29 03:38:08;;;;;;;14.27;8.75;;;;;;;;;;5056623;28;20047;-61
2022/03/29 03:40:53;;;;;;;13.45;8.95;;;;;;;;;;5048077;28;20524;-60
2022/03/29 03:43:39;;;;;;;15.35;8.75;;;;;;;;;;5038107;28;20024;-61
2022/03/29 03:46:24;;;;;;;15.77;9.48;;;;;;;;;;5040687;28;20467;-60
2022/03/29 03:49:10;;;;;;;15.77;9.35;;;;;;;;;;5041811;28;20484;-66
2022/03/29 03:51:55;;;;;;;15.15;9.00;;;;;;;;;;5042808;28;20488;-62
2022/03/29 03:54:40;;;;;;;17.20;9.55;;;;;;;;;;5035627;28;20021;-63
2022/03/29 03:57:25;;;;;;;14.05;8.82;;;;;;;;;;5051642;28;20033;-62
2022/03/29 04:00:11;;;;;;;16.27;9.23;;;;;;;;;;5049268;28;20122;-62
2022/03/29 04:02:57;;;;;;;15.85;9.10;;;;;;;;;;5050257;28;20029;-65
2022/03/29 04:05:42;;;;;;;16.10;8.35;;;;;;;;;;5033312;28;20049;-62
2022/03/29 04:08:28;;;;;;;13.95;8.82;;;;;;;;;;5042396;28;20043;-61
2022/03/29 04:11:13;;;;;;;18.10;9.45;;;;;;;;;;5041247;28;20064;-60
2022/03/29 04:14:01;;;;;;;14.43;9.00;;;;;;;;;;5037405;28;20448;-62
2022/03/29 04:16:46;;;;;;;14.45;9.73;;;;;;;;;;5024395;28;20033;-61
2022/03/29 04:19:32;;;;;;;19.77;9.13;;;;;;;;;;5061375;28;20041;-61
2022/03/29 04:22:18;;;;;;;17.52;9.48;;;;;;;;;;5042099;28;20583;-61
2022/03/29 04:25:04;;;;;;;17.73;8.82;;;;;;;;;;5048458;28;20055;-63
2022/03/29 04:27:49;;;;;;;17.33;9.90;;;;;;;;;;5042723;28;20494;-62
2022/03/29 04:30:34;;;;;;;14.95;9.65;;;;;;;;;;5055360;28;20657;-62
2022/03/29 04:33:19;;;;;;;17.70;9.18;;;;;;;;;;5041858;28;20032;-62
2022/03/29 04:36:05;;;;;;;17.15;9.15;;;;;;;;;;5054380;28;20051;-61
2022/03/29 04:38:50;;;;;;;17.02;10.57;;;;;;;;;;5050128;28;20041;-61
2022/03/29 04:41:35;;;;;;;16.33;8.73;;;;;;;;;;5047412;28;20475;-60
2022/03/29 04:44:21;;;;;;;18.77;9.95;;;;;;;;;;5052594;28;20115;-63
2022/03/29 04:47:06;;;;;;;17.75;10.10;;;;;;;;;;5045897;28;20393;-60
2022/03/29 04:49:51;;;;;;;17.92;9.07;;;;;;;;;;5045800;28;20143;-62
2022/03/29 04:52:39;;;;;;;17.88;9.70;;;;;;;;;;5041545;28;20060;-63
2022/03/29 04:55:24;;;;;;;16.90;9.32;;;;;;;;;;5049479;28;20032;-60
2022/03/29 04:58:10;;;;;;;17.05;9.15;;;;;;;;;;5040166;28;20033;-63
2022/03/29 05:00:55;;;;;;;16.30;10.07;;;;;;;;;;5053371;28;20032;-61
2022/03/29 05:03:40;;;;;;;19.55;9.35;;;;;;;;;;5032602;28;20040;-60
2022/03/29 05:06:25;;;;;;;14.68;9.30;;;;;;;;;;5042923;28;20115;-67
2022/03/29 05:09:11;;;;;;;16.02;9.77;;;;;;;;;;5036248;28;20031;-61
2022/03/29 05:11:59;;;;;;;24.33;10.15;;;;;;;;;;5041450;28;20029;-62
2022/03/29 05:14:44;;;;;;;19.30;9.50;;;;;;;;;;5035532;28;20044;-61
2022/03/29 05:17:31;;;;;;;20.17;11.23;;;;;;;;;;5035205;28;20046;-61
2022/03/29 05:20:17;;;;;;;17.73;10.52;;;;;;;;;;5044514;28;20087;-60
2022/03/29 05:23:06;;;;;;;16.38;10.20;;;;;;;;;;5047073;28;20091;-61
2022/03/29 05:25:51;;;;;;;15.32;9.38;;;;;;;;;;5043849;28;20483;-61
2022/03/29 05:28:36;;;;;;;16.52;9.52;;;;;;;;;;5033471;28;20601;-63
2022/03/29 05:31:22;;;;;;;18.35;10.00;;;;;;;;;;5043215;28;20029;-60
2022/03/29 05:34:07;;;;;;;18.02;9.20;;;;;;;;;;5051415;28;20025;-60
2022/03/29 05:36:53;;;;;;;17.95;10.15;;;;;;;;;;5018700;28;20032;-61
2022/03/29 05:39:40;;;;;;;17.33;9.82;;;;;;;;;;5022343;28;20037;-60
2022/03/29 05:42:25;;;;;;;17.60;9.63;;;;;;;;;;5033813;28;20090;-68
2022/03/29 05:45:11;;;;;;;21.17;9.43;;;;;;;;;;5038509;28;20028;-62
2022/03/29 05:51:01;;;;;;;19.10;10.43;;;;;;;;;;5035520;28;20024;-60
2022/03/29 05:53:46;;;;;;;18.67;9.82;;;;;;;;;;5042916;28;20438;-62
2022/03/29 05:56:31;;;;;;;17.52;10.05;;;;;;;;;;5033812;28;20044;-63
2022/03/29 05:59:16;;;;;;;18.92;10.88;;;;;;;;;;5037074;28;20094;-65
2022/03/29 06:02:04;;;;;;;17.17;9.60;;;;;;;;;;5033528;28;20040;-60
2022/03/29 06:04:50;;;;;;;22.60;11.48;;;;;;;;;;5033973;28;20120;-67
2022/03/29 06:07:35;;;;;;;17.52;11.32;;;;;;;;;;5042049;28;20499;-68
2022/03/29 06:10:21;;;;;;;21.27;9.95;;;;;;;;;;5028545;28;20088;-68
2022/03/29 06:13:08;;;;;;;18.10;10.05;;;;;;;;;;5033975;28;20033;-68
2022/03/29 06:15:54;;;;;;;14.77;9.82;;;;;;;;;;5025056;28;20025;-69
2022/03/29 06:18:39;;;;;;;19.38;10.65;;;;;;;;;;5035256;28;20044;-62
2022/03/29 06:21:24;;;;;;;15.55;10.73;;;;;;;;;;5056028;28;20032;-68
2022/03/29 06:24:10;;;;;;;22.63;11.35;;;;;;;;;;5054032;28;20186;-66
2022/03/29 06:26:56;;;;;;;16.95;9.95;;;;;;;;;;5033510;28;20025;-67
2022/03/29 06:29:41;;;;;;;22.10;11.40;;;;;;;;;;5033708;28;20082;-67
2022/03/29 06:32:26;;;;;;;22.98;10.10;;;;;;;;;;5035302;28;20391;-67
2022/03/29 06:35:12;;;;;;;18.52;10.10;;;;;;;;;;5034193;28;20036;-68
2022/03/29 06:37:58;;;;;;;16.90;9.98;;;;;;;;;;5032463;28;20131;-62
2022/03/29 06:40:43;;;;;;;19.13;10.38;;;;;;;;;;5033772;28;20024;-66
2022/03/29 06:43:29;;;;;;;17.92;10.73;;;;;;;;;;5033598;28;20032;-67
2022/03/29 06:46:15;;;;;;;19.42;11.45;;;;;;;;;;5032078;28;20471;-70
2022/03/29 06:49:02;;;;;;;20.67;10.95;;;;;;;;;;5033658;28;20059;-67
2022/03/29 06:51:48;;;;;;;18.83;11.07;;;;;;;;;;5042055;28;20148;-67
2022/03/29 06:54:33;;;;;;;20.33;11.90;;;;;;;;;;5033527;28;20068;-67
2022/03/29 06:57:18;;;;;;;24.27;11.20;;;;;;;;;;5035038;28;20064;-61
2022/03/29 07:00:04;;;;;;;21.13;12.43;;;;;;;;;;5026287;28;20035;-61
2022/03/29 07:02:50;;;;;;;20.85;11.20;;;;;;;;;;5032379;28;20537;-61
2022/03/29 07:05:38;;;;;;;20.05;10.77;;;;;;;;;;5033272;28;20274;-61
2022/03/29 07:08:23;;;;;;;18.35;10.88;;;;;;;;;;5032662;28;20033;-61
2022/03/29 07:11:19;;;;;;;18.63;10.93;;;;;;;;;;5034822;28;20289;-60
2022/03/29 07:14:07;;;;;;;16.70;11.35;;;;;;;;;;5036491;28;20025;-62
2022/03/29 07:16:52;;;;;;;20.30;10.35;;;;;;;;;;5028336;28;20037;-64
2022/03/29 07:19:37;;;;;;;18.27;10.07;;;;;;;;;;5031326;28;20045;-63
2022/03/29 07:22:24;;;;;;;18.80;11.15;;;;;;;;;;5034074;28;20040;-63
2022/03/29 07:25:11;;;;;;;19.27;11.00;;;;;;;;;;5028836;28;20029;-64
2022/03/29 07:27:56;;;;;;;21.20;11.02;;;;;;;;;;5046715;28;20020;-63
2022/03/29 07:30:41;;;;;;;20.55;11.07;;;;;;;;;;5036756;28;20452;-61
2022/03/29 07:33:27;;;;;;;19.27;10.25;;;;;;;;;;5034594;28;20028;-63
2022/03/29 07:36:12;;;;;;;17.15;9.82;;;;;;;;;;5029255;28;20025;-61
2022/03/29 07:38:57;;;;;;;24.92;12.27;;;;;;;;;;5035698;28;20508;-60
2022/03/29 07:41:43;;;;;;;20.23;12.73;;;;;;;;;;5019241;28;20471;-61
2022/03/29 07:44:28;;;;;;;24.98;11.98;;;;;;;;;;5025249;28;20185;-62
2022/03/29 07:47:13;;;;;;;18.50;11.60;;;;;;;;;;5019381;28;20047;-61
2022/03/29 07:49:58;;;;;;;21.63;11.32;;;;;;;;;;5041407;28;20357;-67
2022/03/29 07:52:44;;;;;;;20.65;12.65;;;;;;;;;;5057327;28;20029;-60
2022/03/29 07:55:29;;;;;;;18.52;10.70;;;;;;;;;;5031229;28;20120;-60
2022/03/29 07:58:16;;;;;;;24.42;12.57;;;;;;;;;;5035319;28;20044;-60
2022/03/29 08:01:02;;;;;;;22.10;11.48;;;;;;;;;;5033775;28;20041;-61
2022/03/29 08:03:47;;;;;;;20.88;11.50;;;;;;;;;;5037102;28;20064;-63
2022/03/29 08:06:33;;;;;;;18.27;11.73;;;;;;;;;;5035563;28;20055;-60
2022/03/29 08:09:18;;;;;;;19.73;11.15;;;;;;;;;;5036406;28;20446;-60
2022/03/29 08:12:03;;;;;;;21.88;13.00;;;;;;;;;;5024310;28;20029;-62
2022/03/29 08:14:49;;;;;;;21.95;13.32;;;;;;;;;;5034705;28;20507;-63
2022/03/29 08:17:34;;;;;;;19.73;12.32;;;;;;;;;;5036512;28;20136;-65
2022/03/29 08:20:20;;;;;;;25.20;14.13;;;;;;;;;;5047303;28;20423;-62
2022/03/29 08:23:06;;;;;;;26.17;12.68;;;;;;;;;;5038660;28;20043;-62
2022/03/29 08:25:51;;;;;;;22.75;13.90;;;;;;;;;;5042071;28;20523;-63
2022/03/29 08:28:37;;;;;;;24.23;12.98;;;;;;;;;;5036214;28;20055;-65
2022/03/29 08:31:22;;;;;;;21.45;12.88;;;;;;;;;;5031092;28;20418;-60
2022/03/29 08:34:07;;;;;;;28.63;14.02;;;;;;;;;;5036645;28;20029;-60
2022/03/29 08:36:53;;;;;;;19.13;13.25;;;;;;;;;;5033798;28;20055;-63
2022/03/29 08:39:38;;;;;;;22.50;13.52;;;;;;;;;;5046165;28;20037;-62
2022/03/29 08:42:23;;;;;;;20.30;14.10;;;;;;;;;;5052243;28;20029;-60
2022/03/29 08:45:09;;;;;;;19.75;12.25;;;;;;;;;;5041700;28;20116;-60
2022/03/29 08:47:56;;;;;;;20.65;13.05;;;;;;;;;;5035439;28;20427;-67
2022/03/29 08:50:42;;;;;;;24.40;12.80;;;;;;;;;;5035965;28;20041;-62
2022/03/29 08:53:30;;;;;;;22.02;13.60;;;;;;;;;;5017487;28;20029;-61
2022/03/29 08:56:15;;;;;;;21.58;13.57;;;;;;;;;;5033827;28;20192;-62
2022/03/29 08:59:01;;;;;;;23.02;14.07;;;;;;;;;;5041201;28;20037;-61
2022/03/29 09:01:47;;;;;;;26.55;15.82;;;;;;;;;;5035303;28;20056;-60
2022/03/29 09:04:32;;;;;;;29.17;15.43;;;;;;;;;;5035923;28;20040;-67
2022/03/29 09:07:17;;;;;;;28.80;16.48;;;;;;;;;;5028262;28;20416;-61
2022/03/29 09:10:03;;;;;;;22.38;13.95;;;;;;;;;;5025360;28;20038;-60
2022/03/29 09:12:49;;;;;;;29.00;15.00;;;;;;;;;;5013108;28;20041;-60
2022/03/29 09:15:35;;;;;;;27.45;15.27;;;;;;;;;;5028299;28;20488;-62
2022/03/29 09:18:21;;;;;;;30.85;16.23;;;;;;;;;;5032960;28;20615;-60
2022/03/29 09:21:08;;;;;;;26.42;16.85;;;;;;;;;;5029673;28;20025;-59
2022/03/29 09:24:03;;;;;;;35.15;16.50;;;;;;;;;;5033890;28;20029;-61
2022/03/29 09:26:50;;;;;;;30.90;14.48;;;;;;;;;;5028700;28;20037;-62
2022/03/29 09:29:36;;;;;;;34.08;14.95;;;;;;;;;;5027344;28;20041;-59
2022/03/29 09:32:21;;;;;;;26.50;15.73;;;;;;;;;;5028350;28;20029;-60
2022/03/29 09:35:08;;;;;;;25.58;15.80;;;;;;;;;;5028072;28;20037;-59
2022/03/29 09:37:54;;;;;;;22.73;15.00;;;;;;;;;;5035856;28;20460;-60
2022/03/29 09:40:39;;;;;;;29.88;15.57;;;;;;;;;;5029039;28;20081;-60
2022/03/29 09:43:27;;;;;;;25.92;15.25;;;;;;;;;;5027759;28;20057;-59
2022/03/29 09:46:13;;;;;;;21.55;14.45;;;;;;;;;;5027694;28;20056;-59
2022/03/29 09:49:02;;;;;;;24.63;15.02;;;;;;;;;;5027410;28;20061;-61
2022/03/29 09:51:48;;;;;;;24.20;14.40;;;;;;;;;;5009510;28;20110;-61
2022/03/29 09:54:33;;;;;;;22.25;14.25;;;;;;;;;;5003407;28;20041;-59
2022/03/29 09:57:18;;;;;;;23.45;14.50;;;;;;;;;;5011431;28;20404;-60
2022/03/29 10:00:05;;;;;;;24.13;14.55;;;;;;;;;;5019871;28;20067;-60
2022/03/29 10:02:51;;;;;;;22.55;14.63;;;;;;;;;;5028617;28;20025;-59
2022/03/29 10:05:39;;;;;;;27.67;15.48;;;;;;;;;;5029562;28;20472;-62
2022/03/29 10:11:37;;;;;;;25.60;14.05;;;;;;;;;;5026643;28;20025;-62
2022/03/29 10:14:22;;;;;;;23.63;14.25;;;;;;;;;;5035812;28;20044;-62
2022/03/29 10:17:08;;;;;;;23.60;15.57;;;;;;;;;;5047390;28;20037;-59
2022/03/29 10:19:54;;;;;;;26.77;15.25;;;;;;;;;;5028552;28;20028;-60
2022/03/29 10:22:40;;;;;;;19.20;14.30;;;;;;;;;;5021545;28;20021;-60
2022/03/29 10:25:26;;;;;;;26.83;14.55;;;;;;;;;;5035046;28;20033;-60
2022/03/29 10:28:11;;;;;;;22.70;13.88;;;;;;;;;;5048656;28;20029;-60
2022/03/29 10:30:57;;;;;;;28.00;14.98;;;;;;;;;;5043948;28;20209;-61
2022/03/29 10:33:42;;;;;;;22.73;14.80;;;;;;;;;;5048549;28;20035;-60
2022/03/29 10:36:27;;;;;;;23.02;13.55;;;;;;;;;;5033663;28;20072;-59
2022/03/29 10:39:19;;;;;;;22.83;14.02;;;;;;;;;;5034100;28;20487;-60
2022/03/29 10:42:23;;;;;;;20.27;12.35;;;;;;;;;;5033101;28;20051;-62
2022/03/29 10:45:14;;;;;;;22.95;13.55;;;;;;;;;;5033745;28;20075;-61
2022/03/29 10:47:59;;;;;;;23.25;13.68;;;;;;;;;;5034085;28;20137;-62
2022/03/29 10:50:53;;;;;;;21.27;13.48;;;;;;;;;;5032323;28;20093;-60
2022/03/29 10:53:45;;;;;;;21.35;14.05;;;;;;;;;;5034116;28;20033;-68
2022/03/29 10:56:30;;;;;;;22.58;13.23;;;;;;;;;;5037817;28;20060;-63
2022/03/29 10:59:16;;;;;;;26.15;14.05;;;;;;;;;;5023848;28;20185;-61
2022/03/29 11:02:09;;;;;;;26.80;14.45;;;;;;;;;;5021159;28;20172;-61
2022/03/29 11:05:03;;;;;;;20.95;13.45;;;;;;;;;;5033268;28;20586;-61
2022/03/29 11:07:52;;;;;;;18.00;12.32;;;;;;;;;;5028899;28;20049;-63
2022/03/29 11:10:41;;;;;;;18.90;12.30;;;;;;;;;;5037807;28;20029;-62
2022/03/29 11:13:34;;;;;;;25.73;13.63;;;;;;;;;;5039248;28;20033;-59
2022/03/29 11:16:25;;;;;;;19.85;13.90;;;;;;;;;;5037601;28;20468;-61
2022/03/29 11:19:30;;;;;;;26.45;14.82;;;;;;;;;;5027697;28;20036;-61
2022/03/29 11:22:36;;;;;;;27.83;13.77;;;;;;;;;;5035881;28;20108;-61
2022/03/29 11:25:22;;;;;;;27.10;14.05;;;;;;;;;;5017799;28;20378;-60
2022/03/29 11:28:08;;;;;;;20.88;13.10;;;;;;;;;;5029865;28;20032;-60
2022/03/29 11:30:54;;;;;;;23.15;13.73;;;;;;;;;;5037320;28;20240;-59
2022/03/29 11:33:40;;;;;;;22.25;14.27;;;;;;;;;;5035007;28;20041;-61
2022/03/29 11:36:25;;;;;;;21.02;14.45;;;;;;;;;;5039106;28;20098;-71
2022/03/29 11:39:20;;;;;;;21.42;14.57;;;;;;;;;;5040748;28;20049;-68
2022/03/29 11:42:06;;;;;;;25.20;14.85;;;;;;;;;;5035925;28;20564;-67
2022/03/29 11:44:54;;;;;;;26.60;15.55;;;;;;;;;;5035595;28;20116;-68
2022/03/29 11:47:50;;;;;;;22.27;14.13;;;;;;;;;;5048115;28;20045;-67
2022/03/29 11:50:37;;;;;;;25.77;15.75;;;;;;;;;;5027799;28;20036;-62
2022/03/29 11:53:22;;;;;;;23.27;15.48;;;;;;;;;;5031271;28;20495;-69
2022/03/29 11:56:08;;;;;;;24.10;14.85;;;;;;;;;;5051018;28;20032;-66
2022/03/29 11:58:55;;;;;;;21.67;14.10;;;;;;;;;;5021435;28;20044;-66
2022/03/29 12:01:40;;;;;;;23.30;14.63;;;;;;;;;;5036510;28;20056;-66
2022/03/29 12:04:25;;;;;;;21.92;14.00;;;;;;;;;;5038343;28;20033;-67
2022/03/29 12:07:10;;;;;;;23.77;14.95;;;;;;;;;;5036759;28;20106;-66
2022/03/29 12:09:56;;;;;;;23.48;14.52;;;;;;;;;;5033607;28;20124;-61
2022/03/29 12:12:48;;;;;;;27.38;15.25;;;;;;;;;;5034339;28;20075;-62
2022/03/29 12:15:34;;;;;;;25.17;15.07;;;;;;;;;;5034263;28;20065;-63
2022/03/29 12:18:42;;;;;;;22.88;14.52;;;;;;;;;;5033556;28;20040;-62
2022/03/29 12:21:27;;;;;;;23.00;13.73;;;;;;;;;;5034478;28;20028;-63
2022/03/29 12:24:13;;;;;;;24.98;13.85;;;;;;;;;;5035796;28;20407;-63
2022/03/29 12:27:04;;;;;;;21.83;15.25;;;;;;;;;;5043033;28;20371;-65
2022/03/29 12:29:51;;;;;;;19.83;13.23;;;;;;;;;;5037109;28;20029;-62
2022/03/29 12:32:37;;;;;;;23.65;13.40;;;;;;;;;;5034456;28;20114;-60
2022/03/29 12:35:22;;;;;;;21.75;14.60;;;;;;;;;;5034722;28;20079;-60
2022/03/29 12:38:11;;;;;;;27.08;14.75;;;;;;;;;;5038650;28;20040;-60
2022/03/29 12:41:00;;;;;;;25.05;16.15;;;;;;;;;;5035268;28;20040;-61
2022/03/29 12:43:52;;;;;;;23.08;15.20;;;;;;;;;;5041000;28;20036;-59
2022/03/29 12:46:39;;;;;;;28.25;16.15;;;;;;;;;;5037171;28;20021;-61
2022/03/29 12:49:25;;;;;;;27.58;15.82;;;;;;;;;;5034935;28;20483;-68
2022/03/29 12:52:11;;;;;;;24.60;16.25;;;;;;;;;;5031616;28;20037;-67
2022/03/29 12:55:02;;;;;;;21.35;15.10;;;;;;;;;;5029818;28;20388;-69
2022/03/29 12:57:47;;;;;;;25.60;15.80;;;;;;;;;;5029294;28;20064;-67
2022/03/29 13:00:37;;;;;;;29.42;17.02;;;;;;;;;;5035340;28;20061;-65
2022/03/29 13:03:22;;;;;;;;;;;;;;;;;;5047531;28;20338;-66
2022/03/29 13:06:08;;;;;;;23.88;16.50;;;;;;;;;;5007111;28;19924;-62
2022/03/29 13:09:00;;;;;;;27.80;16.05;;;;;;;;;;5036060;28;20045;-63
2022/03/29 13:11:45;;;;;;;30.42;16.27;;;;;;;;;;5048065;28;20036;-63
2022/03/29 13:14:37;;;;;;;25.25;15.60;;;;;;;;;;5034430;28;20139;-63
2022/03/29 13:17:32;;;;;;;23.77;14.85;;;;;;;;;;5033824;28;20028;-62
2022/03/29 13:20:23;;;;;;;25.40;16.25;;;;;;;;;;5034679;28;20045;-61
2022/03/29 13:23:08;;;;;;;25.65;15.00;;;;;;;;;;5033827;28;20111;-59
2022/03/29 13:25:54;;;;;;;28.48;15.63;;;;;;;;;;5034563;28;20028;-63
2022/03/29 13:28:39;;;;;;;26.45;15.27;;;;;;;;;;5034733;28;20163;-62
2022/03/29 13:31:29;;;;;;;28.13;14.82;;;;;;;;;;5034690;28;20044;-60
2022/03/29 13:34:15;;;;;;;25.13;14.50;;;;;;;;;;5047912;28;20039;-61
2022/03/29 13:37:00;;;;;;;26.33;13.77;;;;;;;;;;5034318;28;20033;-63
2022/03/29 13:39:47;;;;;;;24.10;14.73;;;;;;;;;;5015143;28;20029;-60
2022/03/29 13:42:32;;;;;;;24.35;13.82;;;;;;;;;;5030386;28;20032;-61
2022/03/29 13:45:17;;;;;;;21.92;13.05;;;;;;;;;;5033936;28;20107;-60
2022/03/29 13:48:03;;;;;;;24.38;12.75;;;;;;;;;;5033981;28;20036;-60
2022/03/29 13:50:48;;;;;;;27.25;15.70;;;;;;;;;;5039710;28;20028;-61
2022/03/29 13:53:34;;;;;;;24.90;13.50;;;;;;;;;;5032825;28;20487;-62
2022/03/29 13:56:21;;;;;;;25.02;12.00;;;;;;;;;;5034836;28;20108;-62
2022/03/29 13:59:07;;;;;;;24.13;10.55;;;;;;;;;;5037419;28;20053;-64
2022/03/29 14:01:54;;;;;;;20.95;8.90;;;;;;;;;;5045385;28;20175;-65
2022/03/29 14:04:39;;;;;;;16.80;8.30;;;;;;;;;;5032253;28;20063;-65
2022/03/29 14:07:24;;;;;;;15.50;8.40;;;;;;;;;;5033724;28;20083;-65
2022/03/29 14:10:09;;;;;;;16.90;9.50;;;;;;;;;;5017722;28;20033;-65
2022/03/29 14:12:55;;;;;;;21.55;12.93;;;;;;;;;;5034125;28;20571;-65
2022/03/29 14:15:41;;;;;;;29.52;17.40;;;;;;;;;;5032540;28;20060;-66
2022/03/29 14:18:27;;;;;;;29.77;16.83;;;;;;;;;;5038222;28;20055;-63
2022/03/29 14:21:12;;;;;;;28.05;18.10;;;;;;;;;;5034044;28;20025;-60
2022/03/29 14:23:57;;;;;;;27.77;16.15;;;;;;;;;;5033754;28;20060;-60
2022/03/29 14:26:42;;;;;;;28.73;16.45;;;;;;;;;;5034161;28;20033;-59
2022/03/29 14:29:29;;;;;;;25.45;16.00;;;;;;;;;;5034520;28;20033;-60
2022/03/29 14:32:14;;;;;;;23.25;15.00;;;;;;;;;;5034692;28;20448;-60
2022/03/29 14:35:05;;;;;;;28.17;16.88;;;;;;;;;;5022984;28;20028;-60
2022/03/29 14:37:50;;;;;;;34.70;18.38;;;;;;;;;;5033895;28;20163;-65
2022/03/29 14:40:36;;;;;;;29.75;16.45;;;;;;;;;;5032812;28;20468;-60
2022/03/29 14:43:21;;;;;;;29.35;16.08;;;;;;;;;;5037147;28;20025;-59
2022/03/29 14:46:06;;;;;;;31.98;17.15;;;;;;;;;;5032882;28;20347;-59
2022/03/29 14:48:52;;;;;;;27.00;16.95;;;;;;;;;;5029235;28;20071;-62
2022/03/29 14:51:37;;;;;;;30.92;16.50;;;;;;;;;;5050613;28;20071;-63
2022/03/29 14:54:23;;;;;;;26.05;15.95;;;;;;;;;;5051456;28;20025;-63
2022/03/29 14:57:08;;;;;;;26.10;16.23;;;;;;;;;;5038711;28;20028;-63
2022/03/29 14:59:55;;;;;;;24.55;15.63;;;;;;;;;;5037317;28;20044;-63
2022/03/29 15:02:41;;;;;;;24.08;15.05;;;;;;;;;;5018622;28;20524;-64
2022/03/29 15:05:26;;;;;;;25.90;16.88;;;;;;;;;;5036212;28;20021;-63
2022/03/29 15:08:11;;;;;;;30.05;18.08;;;;;;;;;;5023082;28;20383;-64
2022/03/29 15:10:57;;;;;;;25.17;16.58;;;;;;;;;;5036631;28;20090;-64
2022/03/29 15:13:46;;;;;;;31.92;18.58;;;;;;;;;;5037628;28;20171;-60
2022/03/29 15:16:34;;;;;;;29.50;17.40;;;;;;;;;;5036334;28;20430;-61
2022/03/29 15:19:20;;;;;;;28.20;17.38;;;;;;;;;;5037619;28;20043;-61
2022/03/29 15:22:05;;;;;;;30.70;18.25;;;;;;;;;;5035083;28;20522;-62
2022/03/29 15:24:54;;;;;;;29.00;16.92;;;;;;;;;;5040072;28;20035;-62
2022/03/29 15:27:39;;;;;;;32.15;18.70;;;;;;;;;;5023731;28;20171;-62
2022/03/29 15:30:24;;;;;;;29.13;15.82;;;;;;;;;;5036688;28;20029;-69
2022/03/29 15:33:11;;;;;;;29.13;9.48;;;;;;;;;;5036381;28;20036;-60
2022/03/29 15:35:56;;;;;;;32.17;10.95;;;;;;;;;;5041468;28;20025;-59
2022/03/29 15:38:43;;;;;;;25.65;9.52;;;;;;;;;;5037224;28;20479;-60
2022/03/29 15:41:28;;;;;;;26.65;9.23;;;;;;;;;;5037797;28;20075;-60
2022/03/29 15:44:13;;;;;;;33.72;8.82;;;;;;;;;;5036526;28;20029;-60
2022/03/29 15:46:59;;;;;;;30.00;8.43;;;;;;;;;;5037647;28;20078;-61
2022/03/29 15:49:44;;;;;;;26.08;8.65;;;;;;;;;;5029141;28;20420;-60
2022/03/29 15:52:30;;;;;;;35.20;10.32;;;;;;;;;;5018742;28;20067;-63
2022/03/29 15:55:15;;;;;;;30.60;9.60;;;;;;;;;;5036571;28;20040;-64
2022/03/29 15:58:00;;;;;;;33.25;13.93;;;;;;;;;;5041262;28;20163;-62
2022/03/29 16:00:46;;;;;;;32.90;12.90;;;;;;;;;;5050582;28;20111;-62
2022/03/29 16:03:31;;;;;;;34.45;16.05;;;;;;;;;;5034643;28;20025;-65
2022/03/29 16:06:19;;;;;;;27.05;15.98;;;;;;;;;;5033506;28;20056;-64
2022/03/29 16:09:04;;;;;;;28.63;14.73;;;;;;;;;;5020937;28;20028;-63
2022/03/29 16:11:51;;;;;;;26.90;18.58;;;;;;;;;;5034878;28;20041;-69
2022/03/29 16:14:37;;;;;;;29.85;17.33;;;;;;;;;;5043310;28;20205;-67
2022/03/29 16:17:25;;;;;;;29.45;18.27;;;;;;;;;;5044085;28;20032;-69
2022/03/29 16:20:12;;;;;;;28.33;17.20;;;;;;;;;;5035027;28;20037;-69
2022/03/29 16:22:57;;;;;;;31.25;18.08;;;;;;;;;;5034548;28;20029;-67